sensor_id;sensor_type;location;lat;lon;timestamp;pressure;altitude;pressure_sealevel;temperature;humidity
64675;BME280;51090;51.512;11.332;2023-06-10T00:02:05;99350.38;;;19.42;73.14
64675;BME280;51090;51.512;11.332;2023-06-10T00:04:31;99350.81;;;19.39;73.54
64675;BME280;51090;51.512;11.332;2023-06-10T00:06:57;99345.06;;;19.30;73.86
64675;BME280;51090;51.512;11.332;2023-06-10T00:09:23;99358.81;;;19.34;73.87
64675;BME280;51090;51.512;11.332;2023-06-10T00:11:49;99355.00;;;19.30;74.14
64675;BME280;51090;51.512;11.332;2023-06-10T00:14:15;99352.53;;;19.28;74.05
64675;BME280;51090;51.512;11.332;2023-06-10T00:16:41;99358.41;;;19.25;74.60
64675;BME280;51090;51.512;11.332;2023-06-10T00:19:11;99354.56;;;19.21;74.63
64675;BME280;51090;51.512;11.332;2023-06-10T00:21:39;99360.44;;;19.18;75.46
64675;BME280;51090;51.512;11.332;2023-06-10T00:24:07;99357.44;;;19.14;77.01
64675;BME280;51090;51.512;11.332;2023-06-10T00:26:38;99358.97;;;19.10;76.04
64675;BME280;51090;51.512;11.332;2023-06-10T00:29:05;99354.66;;;19.09;76.06
64675;BME280;51090;51.512;11.332;2023-06-10T00:31:31;99361.56;;;19.05;75.90
64675;BME280;51090;51.512;11.332;2023-06-10T00:33:57;99364.72;;;19.02;76.65
64675;BME280;51090;51.512;11.332;2023-06-10T00:36:24;99365.22;;;18.99;76.55
64675;BME280;51090;51.512;11.332;2023-06-10T00:38:50;99359.50;;;18.96;77.02
64675;BME280;51090;51.512;11.332;2023-06-10T00:41:16;99366.44;;;18.91;77.40
64675;BME280;51090;51.512;11.332;2023-06-10T00:43:43;99362.00;;;18.85;79.11
64675;BME280;51090;51.512;11.332;2023-06-10T00:46:09;99364.13;;;18.83;78.63
64675;BME280;51090;51.512;11.332;2023-06-10T00:48:35;99365.75;;;18.84;78.02
64675;BME280;51090;51.512;11.332;2023-06-10T00:51:02;99362.50;;;18.82;78.00
64675;BME280;51090;51.512;11.332;2023-06-10T00:53:29;99370.22;;;18.79;77.92
64675;BME280;51090;51.512;11.332;2023-06-10T00:55:55;99371.25;;;18.78;78.30
64675;BME280;51090;51.512;11.332;2023-06-10T00:58:22;99375.47;;;18.74;78.40
64675;BME280;51090;51.512;11.332;2023-06-10T01:00:48;99374.31;;;18.69;77.75
64675;BME280;51090;51.512;11.332;2023-06-10T01:03:15;99378.28;;;18.67;78.94
64675;BME280;51090;51.512;11.332;2023-06-10T01:05:43;99396.19;;;18.61;78.97
64675;BME280;51090;51.512;11.332;2023-06-10T01:08:28;99385.09;;;18.58;81.00
64675;BME280;51090;51.512;11.332;2023-06-10T01:11:01;99383.59;;;18.50;81.17
64675;BME280;51090;51.512;11.332;2023-06-10T01:13:30;99381.38;;;18.47;80.61
64675;BME280;51090;51.512;11.332;2023-06-10T01:15:58;99371.59;;;18.41;80.80
64675;BME280;51090;51.512;11.332;2023-06-10T01:18:30;99371.00;;;18.39;83.06
64675;BME280;51090;51.512;11.332;2023-06-10T01:20:57;99367.19;;;18.35;81.00
64675;BME280;51090;51.512;11.332;2023-06-10T01:23:23;99370.09;;;18.33;81.16
64675;BME280;51090;51.512;11.332;2023-06-10T01:26:10;99369.28;;;18.33;82.96
64675;BME280;51090;51.512;11.332;2023-06-10T01:28:47;99359.97;;;18.23;82.97
64675;BME280;51090;51.512;11.332;2023-06-10T01:31:38;99363.00;;;18.27;87.96
64675;BME280;51090;51.512;11.332;2023-06-10T01:34:13;99356.25;;;18.24;83.38
64675;BME280;51090;51.512;11.332;2023-06-10T01:36:41;99352.53;;;18.14;87.55
64675;BME280;51090;51.512;11.332;2023-06-10T01:39:11;99348.00;;;18.02;89.90
64675;BME280;51090;51.512;11.332;2023-06-10T01:41:38;99360.81;;;18.00;88.09
64675;BME280;51090;51.512;11.332;2023-06-10T01:44:05;99354.78;;;17.93;87.99
64675;BME280;51090;51.512;11.332;2023-06-10T01:46:31;99352.91;;;17.94;88.84
64675;BME280;51090;51.512;11.332;2023-06-10T01:48:57;99358.03;;;17.95;90.54
64675;BME280;51090;51.512;11.332;2023-06-10T01:51:23;99362.09;;;17.98;90.74
64675;BME280;51090;51.512;11.332;2023-06-10T01:53:49;99364.56;;;17.99;91.35
64675;BME280;51090;51.512;11.332;2023-06-10T01:56:15;99376.09;;;18.00;92.04
64675;BME280;51090;51.512;11.332;2023-06-10T01:58:45;99377.63;;;17.96;91.86
64675;BME280;51090;51.512;11.332;2023-06-10T02:01:11;99376.13;;;17.88;95.61
64675;BME280;51090;51.512;11.332;2023-06-10T02:03:37;99375.16;;;17.82;95.93
64675;BME280;51090;51.512;11.332;2023-06-10T02:06:04;99374.09;;;17.72;100.00
64675;BME280;51090;51.512;11.332;2023-06-10T02:08:30;99377.94;;;17.64;97.54
64675;BME280;51090;51.512;11.332;2023-06-10T02:10:56;99373.53;;;17.58;99.00
64675;BME280;51090;51.512;11.332;2023-06-10T02:13:22;99381.44;;;17.53;99.10
64675;BME280;51090;51.512;11.332;2023-06-10T02:15:48;99384.00;;;17.48;97.91
64675;BME280;51090;51.512;11.332;2023-06-10T02:18:14;99377.22;;;17.45;98.22
64675;BME280;51090;51.512;11.332;2023-06-10T02:20:40;99384.91;;;17.41;99.88
64675;BME280;51090;51.512;11.332;2023-06-10T02:23:06;99384.56;;;17.38;98.96
64675;BME280;51090;51.512;11.332;2023-06-10T02:25:32;99385.84;;;17.35;99.24
64675;BME280;51090;51.512;11.332;2023-06-10T02:27:58;99390.59;;;17.33;98.80
64675;BME280;51090;51.512;11.332;2023-06-10T02:30:24;99390.59;;;17.33;99.15
64675;BME280;51090;51.512;11.332;2023-06-10T02:32:50;99382.69;;;17.27;98.74
64675;BME280;51090;51.512;11.332;2023-06-10T02:35:17;99389.66;;;17.28;98.56
64675;BME280;51090;51.512;11.332;2023-06-10T02:37:43;99390.47;;;17.28;99.07
64675;BME280;51090;51.512;11.332;2023-06-10T02:40:09;99389.31;;;17.24;100.00
64675;BME280;51090;51.512;11.332;2023-06-10T02:42:36;99391.63;;;17.20;100.00
64675;BME280;51090;51.512;11.332;2023-06-10T02:45:02;99397.78;;;17.21;100.00
64675;BME280;51090;51.512;11.332;2023-06-10T02:47:29;99402.34;;;17.20;100.00
64675;BME280;51090;51.512;11.332;2023-06-10T02:49:55;99398.84;;;17.20;100.00
64675;BME280;51090;51.512;11.332;2023-06-10T02:52:21;99405.69;;;17.16;100.00
64675;BME280;51090;51.512;11.332;2023-06-10T02:54:47;99403.25;;;17.14;100.00
64675;BME280;51090;51.512;11.332;2023-06-10T02:57:13;99396.38;;;17.07;100.00
64675;BME280;51090;51.512;11.332;2023-06-10T02:59:40;99396.81;;;17.04;100.00
64675;BME280;51090;51.512;11.332;2023-06-10T03:02:06;99393.09;;;17.05;100.00
64675;BME280;51090;51.512;11.332;2023-06-10T03:04:33;99367.84;;;16.82;100.00
64675;BME280;51090;51.512;11.332;2023-06-10T03:06:58;99385.25;;;16.91;100.00
64675;BME280;51090;51.512;11.332;2023-06-10T03:09:29;99379.91;;;16.91;100.00
64675;BME280;51090;51.512;11.332;2023-06-10T03:11:55;99392.63;;;16.96;100.00
64675;BME280;51090;51.512;11.332;2023-06-10T03:14:21;99401.66;;;16.95;100.00
64675;BME280;51090;51.512;11.332;2023-06-10T03:16:46;99404.81;;;16.92;100.00
64675;BME280;51090;51.512;11.332;2023-06-10T03:19:12;99397.44;;;16.87;100.00
64675;BME280;51090;51.512;11.332;2023-06-10T03:21:38;99394.78;;;16.87;100.00
64675;BME280;51090;51.512;11.332;2023-06-10T03:24:04;99395.97;;;16.91;100.00
64675;BME280;51090;51.512;11.332;2023-06-10T03:26:30;99394.19;;;16.85;100.00
64675;BME280;51090;51.512;11.332;2023-06-10T03:28:56;99361.84;;;16.68;100.00
64675;BME280;51090;51.512;11.332;2023-06-10T03:31:21;99392.19;;;16.81;100.00
64675;BME280;51090;51.512;11.332;2023-06-10T03:33:47;99401.84;;;16.82;100.00
64675;BME280;51090;51.512;11.332;2023-06-10T03:36:13;99397.56;;;16.81;100.00
64675;BME280;51090;51.512;11.332;2023-06-10T03:38:39;99410.69;;;16.82;100.00
64675;BME280;51090;51.512;11.332;2023-06-10T03:41:05;99405.47;;;16.87;100.00
64675;BME280;51090;51.512;11.332;2023-06-10T03:43:31;99410.41;;;16.90;100.00
64675;BME280;51090;51.512;11.332;2023-06-10T03:45:57;99414.25;;;16.94;100.00
64675;BME280;51090;51.512;11.332;2023-06-10T03:48:23;99412.16;;;16.96;100.00
64675;BME280;51090;51.512;11.332;2023-06-10T03:50:49;99413.22;;;16.95;100.00
64675;BME280;51090;51.512;11.332;2023-06-10T03:53:16;99418.00;;;16.93;100.00
64675;BME280;51090;51.512;11.332;2023-06-10T03:55:42;99415.31;;;16.93;100.00
64675;BME280;51090;51.512;11.332;2023-06-10T03:58:09;99417.31;;;16.98;100.00
64675;BME280;51090;51.512;11.332;2023-06-10T04:00:35;99425.09;;;17.00;100.00
64675;BME280;51090;51.512;11.332;2023-06-10T04:03:08;99421.03;;;16.97;100.00
64675;BME280;51090;51.512;11.332;2023-06-10T04:05:35;99424.66;;;17.03;100.00
64675;BME280;51090;51.512;11.332;2023-06-10T04:08:00;99421.75;;;17.04;100.00
64675;BME280;51090;51.512;11.332;2023-06-10T04:10:27;99413.22;;;16.95;100.00
64675;BME280;51090;51.512;11.332;2023-06-10T04:12:53;99435.75;;;17.06;100.00
64675;BME280;51090;51.512;11.332;2023-06-10T04:15:19;99418.13;;;16.98;100.00
64675;BME280;51090;51.512;11.332;2023-06-10T04:17:45;99437.72;;;17.11;100.00
64675;BME280;51090;51.512;11.332;2023-06-10T04:20:11;99425.25;;;17.05;100.00
64675;BME280;51090;51.512;11.332;2023-06-10T04:22:37;99437.72;;;17.11;100.00
64675;BME280;51090;51.512;11.332;2023-06-10T04:25:02;99431.41;;;17.05;100.00
64675;BME280;51090;51.512;11.332;2023-06-10T04:27:29;99426.44;;;17.09;100.00
64675;BME280;51090;51.512;11.332;2023-06-10T04:29:54;99431.94;;;17.14;100.00
64675;BME280;51090;51.512;11.332;2023-06-10T04:32:20;99434.59;;;17.14;100.00
64675;BME280;51090;51.512;11.332;2023-06-10T04:34:46;99441.59;;;17.15;100.00
64675;BME280;51090;51.512;11.332;2023-06-10T04:37:12;99431.34;;;17.24;100.00
64675;BME280;51090;51.512;11.332;2023-06-10T04:39:38;99431.59;;;17.22;100.00
64675;BME280;51090;51.512;11.332;2023-06-10T04:42:04;99435.00;;;17.29;100.00
64675;BME280;51090;51.512;11.332;2023-06-10T04:44:30;99435.69;;;17.36;100.00
64675;BME280;51090;51.512;11.332;2023-06-10T04:46:56;99425.56;;;17.38;100.00
64675;BME280;51090;51.512;11.332;2023-06-10T04:49:22;99440.41;;;17.53;100.00
64675;BME280;51090;51.512;11.332;2023-06-10T04:51:47;99432.13;;;17.54;100.00
64675;BME280;51090;51.512;11.332;2023-06-10T04:54:13;99423.78;;;17.62;100.00
64675;BME280;51090;51.512;11.332;2023-06-10T04:56:39;99442.47;;;17.81;100.00
64675;BME280;51090;51.512;11.332;2023-06-10T04:59:05;99444.81;;;17.89;100.00
64675;BME280;51090;51.512;11.332;2023-06-10T05:01:31;99433.97;;;17.96;100.00
64675;BME280;51090;51.512;11.332;2023-06-10T05:03:56;99442.47;;;18.04;100.00
64675;BME280;51090;51.512;11.332;2023-06-10T05:06:22;99452.53;;;18.09;100.00
64675;BME280;51090;51.512;11.332;2023-06-10T05:08:48;99450.44;;;18.11;100.00
64675;BME280;51090;51.512;11.332;2023-06-10T05:11:13;99457.19;;;18.14;100.00
64675;BME280;51090;51.512;11.332;2023-06-10T05:13:41;99452.06;;;18.12;100.00
64675;BME280;51090;51.512;11.332;2023-06-10T05:16:07;99456.00;;;18.10;100.00
64675;BME280;51090;51.512;11.332;2023-06-10T05:18:33;99455.91;;;18.16;100.00
64675;BME280;51090;51.512;11.332;2023-06-10T05:20:59;99454.97;;;18.22;100.00
64675;BME280;51090;51.512;11.332;2023-06-10T05:23:24;99452.50;;;18.21;100.00
64675;BME280;51090;51.512;11.332;2023-06-10T05:25:50;99471.78;;;18.30;100.00
64675;BME280;51090;51.512;11.332;2023-06-10T05:28:16;99467.66;;;18.39;100.00
64675;BME280;51090;51.512;11.332;2023-06-10T05:30:42;99476.19;;;18.47;100.00
64675;BME280;51090;51.512;11.332;2023-06-10T05:33:07;99478.16;;;18.52;100.00
64675;BME280;51090;51.512;11.332;2023-06-10T05:35:33;99466.09;;;18.66;100.00
64675;BME280;51090;51.512;11.332;2023-06-10T05:37:59;99470.66;;;18.78;100.00
64675;BME280;51090;51.512;11.332;2023-06-10T05:40:24;99468.66;;;18.85;100.00
64675;BME280;51090;51.512;11.332;2023-06-10T05:42:50;99486.88;;;18.83;100.00
64675;BME280;51090;51.512;11.332;2023-06-10T05:45:16;99487.47;;;18.73;100.00
64675;BME280;51090;51.512;11.332;2023-06-10T05:47:42;99486.09;;;18.59;100.00
64675;BME280;51090;51.512;11.332;2023-06-10T05:50:08;99487.13;;;18.69;100.00
64675;BME280;51090;51.512;11.332;2023-06-10T05:52:35;99490.72;;;18.87;100.00
64675;BME280;51090;51.512;11.332;2023-06-10T05:55:04;99481.25;;;18.96;100.00
64675;BME280;51090;51.512;11.332;2023-06-10T05:57:30;99485.66;;;19.02;100.00
64675;BME280;51090;51.512;11.332;2023-06-10T05:59:56;99490.06;;;19.08;100.00
64675;BME280;51090;51.512;11.332;2023-06-10T06:02:22;99481.16;;;19.20;100.00
64675;BME280;51090;51.512;11.332;2023-06-10T06:04:48;99485.09;;;19.29;100.00
64675;BME280;51090;51.512;11.332;2023-06-10T06:07:13;99481.69;;;19.33;100.00
64675;BME280;51090;51.512;11.332;2023-06-10T06:09:41;99481.94;;;19.32;100.00
64675;BME280;51090;51.512;11.332;2023-06-10T06:12:08;99492.91;;;19.30;100.00
64675;BME280;51090;51.512;11.332;2023-06-10T06:14:38;99491.22;;;19.24;100.00
64675;BME280;51090;51.512;11.332;2023-06-10T06:17:07;99488.66;;;19.18;100.00
64675;BME280;51090;51.512;11.332;2023-06-10T06:19:33;99486.16;;;19.28;100.00
64675;BME280;51090;51.512;11.332;2023-06-10T06:21:59;99506.56;;;19.41;100.00
64675;BME280;51090;51.512;11.332;2023-06-10T06:24:25;99480.16;;;19.38;100.00
64675;BME280;51090;51.512;11.332;2023-06-10T06:26:51;99489.25;;;19.36;100.00
64675;BME280;51090;51.512;11.332;2023-06-10T06:29:16;99487.22;;;19.27;100.00
64675;BME280;51090;51.512;11.332;2023-06-10T06:31:42;99499.59;;;19.28;100.00
64675;BME280;51090;51.512;11.332;2023-06-10T06:34:08;99499.63;;;19.16;100.00
64675;BME280;51090;51.512;11.332;2023-06-10T06:36:33;99493.81;;;19.07;100.00
64675;BME280;51090;51.512;11.332;2023-06-10T06:38:59;99488.56;;;19.01;100.00
64675;BME280;51090;51.512;11.332;2023-06-10T06:41:28;99480.41;;;18.96;100.00
64675;BME280;51090;51.512;11.332;2023-06-10T06:43:56;99488.44;;;19.07;100.00
64675;BME280;51090;51.512;11.332;2023-06-10T06:46:22;99488.22;;;19.09;100.00
64675;BME280;51090;51.512;11.332;2023-06-10T06:48:48;99499.41;;;19.18;100.00
64675;BME280;51090;51.512;11.332;2023-06-10T06:51:14;99500.31;;;19.23;100.00
64675;BME280;51090;51.512;11.332;2023-06-10T06:53:40;99499.09;;;19.31;100.00
64675;BME280;51090;51.512;11.332;2023-06-10T06:56:12;99498.53;;;19.29;100.00
64675;BME280;51090;51.512;11.332;2023-06-10T06:58:37;99499.69;;;19.33;100.00
64675;BME280;51090;51.512;11.332;2023-06-10T07:01:03;99491.59;;;19.45;100.00
64675;BME280;51090;51.512;11.332;2023-06-10T07:03:29;99506.88;;;19.44;100.00
64675;BME280;51090;51.512;11.332;2023-06-10T07:05:55;99502.25;;;19.40;100.00
64675;BME280;51090;51.512;11.332;2023-06-10T07:08:21;99496.38;;;19.43;100.00
64675;BME280;51090;51.512;11.332;2023-06-10T07:10:46;99490.84;;;19.49;100.00
64675;BME280;51090;51.512;11.332;2023-06-10T07:13:12;99504.81;;;19.63;100.00
64675;BME280;51090;51.512;11.332;2023-06-10T07:15:38;99495.34;;;19.61;100.00
64675;BME280;51090;51.512;11.332;2023-06-10T07:18:04;99495.94;;;19.63;100.00
64675;BME280;51090;51.512;11.332;2023-06-10T07:20:30;99495.34;;;19.61;100.00
64675;BME280;51090;51.512;11.332;2023-06-10T07:22:56;99498.06;;;19.77;100.00
64675;BME280;51090;51.512;11.332;2023-06-10T07:25:22;99509.44;;;19.96;100.00
64675;BME280;51090;51.512;11.332;2023-06-10T07:27:47;99500.03;;;20.16;100.00
64675;BME280;51090;51.512;11.332;2023-06-10T07:30:13;99507.91;;;20.39;100.00
64675;BME280;51090;51.512;11.332;2023-06-10T07:32:39;99504.28;;;20.67;100.00
64675;BME280;51090;51.512;11.332;2023-06-10T07:35:09;99512.69;;;20.93;100.00
64675;BME280;51090;51.512;11.332;2023-06-10T07:37:36;99503.47;;;21.11;100.00
64675;BME280;51090;51.512;11.332;2023-06-10T07:40:02;99508.00;;;21.27;100.00
64675;BME280;51090;51.512;11.332;2023-06-10T07:42:28;99507.53;;;21.36;100.00
64675;BME280;51090;51.512;11.332;2023-06-10T07:44:54;99507.53;;;21.36;100.00
64675;BME280;51090;51.512;11.332;2023-06-10T07:47:20;99516.28;;;21.43;100.00
64675;BME280;51090;51.512;11.332;2023-06-10T07:49:45;99496.97;;;21.56;99.34
64675;BME280;51090;51.512;11.332;2023-06-10T07:52:11;99495.75;;;21.69;99.92
64675;BME280;51090;51.512;11.332;2023-06-10T07:54:37;99500.91;;;21.75;98.87
64675;BME280;51090;51.512;11.332;2023-06-10T07:57:03;99499.84;;;21.77;98.92
64675;BME280;51090;51.512;11.332;2023-06-10T07:59:28;99500.97;;;21.81;98.82
64675;BME280;51090;51.512;11.332;2023-06-10T08:01:54;99502.09;;;21.85;98.25
64675;BME280;51090;51.512;11.332;2023-06-10T08:04:20;99499.97;;;21.92;97.13
64675;BME280;51090;51.512;11.332;2023-06-10T08:06:46;99506.06;;;22.09;96.83
64675;BME280;51090;51.512;11.332;2023-06-10T08:09:14;99509.44;;;22.27;96.48
64675;BME280;51090;51.512;11.332;2023-06-10T08:11:40;99503.25;;;22.31;96.50
64675;BME280;51090;51.512;11.332;2023-06-10T08:14:05;99504.44;;;22.46;94.36
64675;BME280;51090;51.512;11.332;2023-06-10T08:16:31;99502.31;;;22.58;94.39
64675;BME280;51090;51.512;11.332;2023-06-10T08:18:57;99492.38;;;22.64;93.18
64675;BME280;51090;51.512;11.332;2023-06-10T08:21:22;99512.94;;;22.70;92.43
64675;BME280;51090;51.512;11.332;2023-06-10T08:23:52;99506.13;;;22.57;92.32
64675;BME280;51090;51.512;11.332;2023-06-10T08:26:18;99514.78;;;22.59;92.81
64675;BME280;51090;51.512;11.332;2023-06-10T08:28:43;99511.78;;;22.60;93.55
64675;BME280;51090;51.512;11.332;2023-06-10T08:31:09;99511.53;;;22.57;94.38
64675;BME280;51090;51.512;11.332;2023-06-10T08:33:35;99508.31;;;22.65;94.11
64675;BME280;51090;51.512;11.332;2023-06-10T08:36:00;99515.66;;;22.70;93.71
64675;BME280;51090;51.512;11.332;2023-06-10T08:38:26;99508.66;;;22.74;94.03
64675;BME280;51090;51.512;11.332;2023-06-10T08:40:59;99502.16;;;22.75;94.31
64675;BME280;51090;51.512;11.332;2023-06-10T08:43:37;99498.16;;;22.88;92.44
64675;BME280;51090;51.512;11.332;2023-06-10T08:46:08;99484.47;;;23.04;91.08
64675;BME280;51090;51.512;11.332;2023-06-10T08:48:35;99499.69;;;23.31;88.67
64675;BME280;51090;51.512;11.332;2023-06-10T08:51:04;99505.38;;;23.45;86.60
64675;BME280;51090;51.512;11.332;2023-06-10T08:53:34;99504.59;;;23.55;85.16
64675;BME280;51090;51.512;11.332;2023-06-10T08:56:04;99499.72;;;23.57;84.83
64675;BME280;51090;51.512;11.332;2023-06-10T08:58:32;99510.00;;;23.60;86.57
64675;BME280;51090;51.512;11.332;2023-06-10T09:01:08;99512.22;;;23.78;84.63
64675;BME280;51090;51.512;11.332;2023-06-10T09:03:37;99504.38;;;23.87;83.74
64675;BME280;51090;51.512;11.332;2023-06-10T09:06:05;99506.25;;;23.97;81.65
64675;BME280;51090;51.512;11.332;2023-06-10T09:08:33;99507.34;;;24.06;81.40
64675;BME280;51090;51.512;11.332;2023-06-10T09:11:00;99509.50;;;24.19;80.39
64675;BME280;51090;51.512;11.332;2023-06-10T09:13:26;99514.34;;;24.27;79.96
64675;BME280;51090;51.512;11.332;2023-06-10T09:15:52;99495.38;;;24.27;80.06
64675;BME280;51090;51.512;11.332;2023-06-10T09:18:18;99512.19;;;24.45;78.10
64675;BME280;51090;51.512;11.332;2023-06-10T09:20:43;99503.78;;;24.51;78.08
64675;BME280;51090;51.512;11.332;2023-06-10T09:23:09;99505.16;;;24.49;78.84
64675;BME280;51090;51.512;11.332;2023-06-10T09:25:38;99496.47;;;24.52;77.93
64675;BME280;51090;51.512;11.332;2023-06-10T09:28:04;99505.69;;;24.46;80.14
64675;BME280;51090;51.512;11.332;2023-06-10T09:30:32;99505.41;;;24.37;80.06
64675;BME280;51090;51.512;11.332;2023-06-10T09:33:09;99508.09;;;24.37;80.85
64675;BME280;51090;51.512;11.332;2023-06-10T09:35:35;99497.81;;;24.34;80.41
64675;BME280;51090;51.512;11.332;2023-06-10T09:38:02;99509.78;;;24.28;80.47
64675;BME280;51090;51.512;11.332;2023-06-10T09:40:28;99503.00;;;24.20;83.06
64675;BME280;51090;51.512;11.332;2023-06-10T09:42:56;99499.75;;;24.13;82.37
64675;BME280;51090;51.512;11.332;2023-06-10T09:45:23;99522.22;;;24.24;82.52
64675;BME280;51090;51.512;11.332;2023-06-10T09:47:53;99513.81;;;24.30;81.14
64675;BME280;51090;51.512;11.332;2023-06-10T09:50:19;99498.94;;;24.28;80.50
64675;BME280;51090;51.512;11.332;2023-06-10T09:52:46;99499.97;;;24.37;78.58
64675;BME280;51090;51.512;11.332;2023-06-10T09:55:13;99507.03;;;24.48;79.49
64675;BME280;51090;51.512;11.332;2023-06-10T09:57:39;99487.78;;;24.50;78.47
64675;BME280;51090;51.512;11.332;2023-06-10T10:00:09;99492.63;;;24.63;78.93
64675;BME280;51090;51.512;11.332;2023-06-10T10:02:51;99484.50;;;24.58;77.72
64675;BME280;51090;51.512;11.332;2023-06-10T10:05:19;99512.66;;;24.72;78.88
64675;BME280;51090;51.512;11.332;2023-06-10T10:07:45;99500.19;;;24.76;77.77
64675;BME280;51090;51.512;11.332;2023-06-10T10:10:13;99496.91;;;24.80;76.98
64675;BME280;51090;51.512;11.332;2023-06-10T10:12:41;99503.09;;;24.90;78.18
64675;BME280;51090;51.512;11.332;2023-06-10T10:15:10;99498.47;;;24.91;76.26
64675;BME280;51090;51.512;11.332;2023-06-10T10:18:12;99493.56;;;25.03;75.48
64675;BME280;51090;51.512;11.332;2023-06-10T10:20:47;99501.34;;;25.15;75.33
64675;BME280;51090;51.512;11.332;2023-06-10T10:23:24;99492.38;;;25.25;72.38
64675;BME280;51090;51.512;11.332;2023-06-10T10:25:53;99500.16;;;25.41;71.96
64675;BME280;51090;51.512;11.332;2023-06-10T10:28:23;99498.47;;;25.46;70.51
64675;BME280;51090;51.512;11.332;2023-06-10T10:30:54;99497.09;;;25.48;70.60
64675;BME280;51090;51.512;11.332;2023-06-10T10:33:33;99494.16;;;25.45;68.95
64675;BME280;51090;51.512;11.332;2023-06-10T10:36:02;99485.72;;;25.51;71.26
64675;BME280;51090;51.512;11.332;2023-06-10T10:38:29;99500.28;;;25.60;70.92
64675;BME280;51090;51.512;11.332;2023-06-10T10:40:56;99479.91;;;25.63;69.89
64675;BME280;51090;51.512;11.332;2023-06-10T10:43:25;99489.03;;;25.77;69.40
64675;BME280;51090;51.512;11.332;2023-06-10T10:46:02;99486.84;;;25.84;70.01
64675;BME280;51090;51.512;11.332;2023-06-10T10:48:37;99485.97;;;25.89;67.12
64675;BME280;51090;51.512;11.332;2023-06-10T10:51:04;99487.03;;;25.93;67.44
64675;BME280;51090;51.512;11.332;2023-06-10T10:53:30;99479.94;;;25.97;68.59
64675;BME280;51090;51.512;11.332;2023-06-10T10:56:05;99487.28;;;25.92;65.10
64675;BME280;51090;51.512;11.332;2023-06-10T10:58:32;99486.53;;;25.86;67.73
64675;BME280;51090;51.512;11.332;2023-06-10T11:00:58;99475.88;;;25.95;67.34
64675;BME280;51090;51.512;11.332;2023-06-10T11:03:29;99488.97;;;26.17;66.77
64675;BME280;51090;51.512;11.332;2023-06-10T11:05:58;99485.34;;;26.26;66.31
64675;BME280;51090;51.512;11.332;2023-06-10T11:10:58;99475.97;;;26.38;65.30
64675;BME280;51090;51.512;11.332;2023-06-10T11:13:26;99481.31;;;26.48;64.58
64675;BME280;51090;51.512;11.332;2023-06-10T11:15:53;99461.81;;;26.41;64.18
64675;BME280;51090;51.512;11.332;2023-06-10T11:18:26;99467.44;;;26.49;62.83
64675;BME280;51090;51.512;11.332;2023-06-10T11:21:02;99468.75;;;26.57;62.36
64675;BME280;51090;51.512;11.332;2023-06-10T11:26:21;99472.72;;;26.65;58.88
64675;BME280;51090;51.512;11.332;2023-06-10T11:31:29;99476.72;;;26.73;61.49
64675;BME280;51090;51.512;11.332;2023-06-10T11:34:00;99452.88;;;26.64;61.09
64675;BME280;51090;51.512;11.332;2023-06-10T11:36:28;99463.84;;;26.78;61.87
64675;BME280;51090;51.512;11.332;2023-06-10T11:39:06;99466.50;;;26.83;59.77
64675;BME280;51090;51.512;11.332;2023-06-10T11:41:34;99472.09;;;26.92;59.44
64675;BME280;51090;51.512;11.332;2023-06-10T11:44:11;99461.22;;;26.92;58.77
64675;BME280;51090;51.512;11.332;2023-06-10T11:46:37;99455.78;;;26.92;59.08
64675;BME280;51090;51.512;11.332;2023-06-10T11:49:04;99464.41;;;26.99;59.20
64675;BME280;51090;51.512;11.332;2023-06-10T11:51:36;99471.16;;;27.02;57.71
64675;BME280;51090;51.512;11.332;2023-06-10T11:54:03;99465.44;;;27.03;58.55
64675;BME280;51090;51.512;11.332;2023-06-10T11:56:30;99464.56;;;27.08;58.11
64675;BME280;51090;51.512;11.332;2023-06-10T11:59:05;99461.72;;;27.18;57.85
64675;BME280;51090;51.512;11.332;2023-06-10T12:01:35;99452.91;;;27.26;56.46
64675;BME280;51090;51.512;11.332;2023-06-10T12:04:07;99449.06;;;27.27;55.62
64675;BME280;51090;51.512;11.332;2023-06-10T12:06:43;99464.00;;;27.30;55.49
64675;BME280;51090;51.512;11.332;2023-06-10T12:09:24;99464.38;;;27.23;55.63
64675;BME280;51090;51.512;11.332;2023-06-10T12:12:04;99446.56;;;27.31;55.95
64675;BME280;51090;51.512;11.332;2023-06-10T12:14:57;99440.88;;;27.46;55.13
64675;BME280;51090;51.512;11.332;2023-06-10T12:19:57;99446.53;;;27.50;55.54
64675;BME280;51090;51.512;11.332;2023-06-10T12:22:23;99442.53;;;27.61;55.91
64675;BME280;51090;51.512;11.332;2023-06-10T12:25:04;99438.91;;;27.85;53.96
64675;BME280;51090;51.512;11.332;2023-06-10T12:27:33;99435.69;;;27.96;54.22
64675;BME280;51090;51.512;11.332;2023-06-10T12:30:01;99440.69;;;28.08;53.99
64675;BME280;51090;51.512;11.332;2023-06-10T12:32:45;99432.31;;;28.18;52.06
64675;BME280;51090;51.512;11.332;2023-06-10T12:35:15;99431.09;;;28.25;51.73
64675;BME280;51090;51.512;11.332;2023-06-10T12:37:42;99431.38;;;28.23;52.15
64675;BME280;51090;51.512;11.332;2023-06-10T12:40:33;99433.22;;;28.28;50.87
64675;BME280;51090;51.512;11.332;2023-06-10T12:42:59;99418.47;;;28.29;51.36
64675;BME280;51090;51.512;11.332;2023-06-10T12:45:36;99421.41;;;28.32;50.04
64675;BME280;51090;51.512;11.332;2023-06-10T12:48:24;99416.84;;;28.14;50.64
64675;BME280;51090;51.512;11.332;2023-06-10T12:50:58;99424.94;;;28.19;50.65
64675;BME280;51090;51.512;11.332;2023-06-10T12:53:25;99424.31;;;28.22;50.76
64675;BME280;51090;51.512;11.332;2023-06-10T12:55:54;99410.19;;;28.20;50.46
64675;BME280;51090;51.512;11.332;2023-06-10T12:58:21;99415.44;;;28.16;50.02
64675;BME280;51090;51.512;11.332;2023-06-10T13:00:47;99408.34;;;28.15;50.31